createdAt,value
2023-02-22T00:03:58.813Z,43.10
2023-02-22T00:09:03.382Z,43.00
2023-02-22T00:14:06.151Z,38.33
2023-02-22T00:19:30.016Z,40.27
2023-02-22T00:24:55.470Z,39.07
2023-02-22T00:30:22.467Z,42.30
2023-02-22T00:35:46.665Z,40.60
2023-02-22T00:41:12.173Z,39.20
2023-02-22T00:46:36.359Z,37.90
2023-02-22T00:51:59.820Z,38.00
2023-02-22T00:57:25.013Z,41.33
2023-02-22T01:02:50.616Z,44.43
2023-02-22T01:08:16.522Z,46.37
2023-02-22T01:13:40.914Z,48.00
2023-02-22T01:19:03.936Z,45.60
2023-02-22T01:24:26.975Z,45.07
2023-02-22T01:29:52.396Z,42.97
2023-02-22T01:35:19.087Z,43.60
2023-02-22T01:40:44.440Z,42.20
2023-02-22T01:46:21.979Z,45.53
2023-02-22T01:51:47.833Z,43.40
2023-02-22T01:57:16.583Z,42.93
2023-02-22T02:02:45.147Z,45.17
2023-02-22T02:08:22.205Z,48.30
2023-02-22T02:13:45.360Z,49.80
2023-02-22T02:19:15.314Z,48.87
2023-02-22T02:24:54.590Z,49.67
2023-02-22T02:30:44.165Z,45.47
2023-02-22T02:36:16.153Z,46.97
2023-02-22T02:41:45.293Z,45.43
2023-02-22T02:47:15.338Z,46.63
2023-02-22T02:52:42.075Z,46.87
2023-02-22T02:58:05.764Z,42.70
2023-02-22T03:03:41.450Z,42.43
2023-02-22T03:09:13.859Z,37.13
2023-02-22T03:14:43.285Z,35.33
2023-02-22T03:20:14.383Z,32.87
2023-02-22T03:25:44.694Z,32.37
2023-02-22T03:31:11.859Z,32.30
2023-02-22T03:36:43.694Z,31.20
2023-02-22T03:42:15.924Z,32.33
2023-02-22T03:47:42.472Z,30.13
2023-02-22T03:53:07.387Z,29.37
2023-02-22T03:58:36.514Z,35.93
2023-02-22T04:04:01.947Z,35.17
2023-02-22T04:09:25.851Z,34.97
2023-02-22T04:14:50.602Z,34.13
2023-02-22T04:20:14.540Z,37.20
2023-02-22T04:25:45.221Z,37.20
2023-02-22T04:31:11.390Z,36.43
2023-02-22T04:36:34.911Z,36.17
2023-02-22T04:41:58.160Z,31.30
2023-02-22T04:47:22.909Z,29.53
2023-02-22T04:52:47.452Z,27.90
2023-02-22T04:58:10.630Z,27.40
2023-02-22T05:03:35.495Z,33.37
2023-02-22T05:08:58.710Z,26.03
2023-02-22T05:14:27.146Z,23.83
2023-02-22T05:19:51.542Z,24.73
2023-02-22T05:25:14.725Z,22.27
2023-02-22T05:30:41.249Z,21.07
2023-02-22T05:36:07.892Z,20.67
2023-02-22T05:41:30.928Z,22.33
2023-02-22T05:46:54.002Z,22.50
2023-02-22T05:52:18.504Z,25.97
2023-02-22T05:57:42.005Z,25.77
2023-02-22T06:10:37.168Z,30.10
2023-02-22T06:16:00.170Z,29.73
2023-02-22T06:21:23.167Z,33.17
2023-02-22T06:26:48.057Z,33.40
2023-02-22T06:32:11.367Z,37.03
2023-02-22T06:37:38.551Z,38.13
2023-02-22T06:43:02.824Z,36.47
2023-02-22T06:48:25.772Z,36.70
2023-02-22T06:53:48.776Z,41.10
2023-02-22T06:59:13.182Z,38.57
2023-02-22T07:04:37.251Z,36.83
2023-02-22T07:10:02.718Z,47.17
2023-02-22T07:15:29.123Z,35.77
2023-02-22T07:20:52.050Z,33.47
2023-02-22T07:26:15.300Z,32.00
2023-02-22T07:31:40.407Z,56.00
2023-02-22T07:37:04.977Z,31.60
2023-02-22T07:42:27.933Z,27.60
2023-02-22T07:47:52.604Z,28.07
2023-02-22T07:53:17.993Z,27.20
2023-02-22T07:58:41.009Z,24.87
2023-02-22T08:04:06.260Z,25.00
2023-02-22T08:09:29.198Z,23.47
2023-02-22T08:14:52.180Z,22.40
2023-02-22T08:20:17.001Z,22.87
2023-02-22T08:25:46.052Z,21.77
2023-02-22T08:31:09.472Z,21.60
2023-02-22T08:36:34.336Z,28.57
2023-02-22T08:41:57.294Z,19.83
2023-02-22T08:47:20.332Z,20.50
2023-02-22T08:52:44.729Z,19.87
2023-02-22T08:58:09.698Z,19.43
2023-02-22T09:03:33.082Z,15.77
2023-02-22T09:08:57.447Z,18.93
2023-02-22T09:14:20.522Z,17.80
2023-02-22T09:19:45.384Z,22.03
2023-02-22T09:25:16.604Z,19.43
2023-02-22T09:30:40.697Z,17.77
2023-02-22T09:36:03.687Z,17.50
2023-02-22T09:41:36.287Z,19.97
2023-02-22T09:46:59.754Z,18.37
2023-02-22T09:52:27.561Z,17.60
2023-02-22T09:57:55.348Z,38.70
2023-02-22T10:03:25.294Z,19.53
2023-02-22T10:08:50.745Z,16.40
2023-02-22T10:14:35.599Z,17.07
2023-02-22T10:20:11.028Z,16.80
2023-02-22T10:25:38.776Z,18.20
2023-02-22T10:31:08.160Z,18.47
2023-02-22T10:36:31.358Z,16.60
2023-02-22T10:41:57.976Z,14.83
2023-02-22T10:47:25.843Z,13.13
2023-02-22T10:52:48.953Z,12.13
2023-02-22T10:58:12.074Z,12.37
2023-02-22T11:03:36.525Z,13.13
2023-02-22T11:09:10.517Z,12.50
2023-02-22T11:14:33.891Z,13.10
2023-02-22T11:19:59.012Z,13.10
2023-02-22T11:25:26.012Z,12.40
2023-02-22T14:11:06.622Z,10.60
2023-02-22T14:16:33.779Z,14.05
2023-02-22T14:22:02.009Z,10.47
2023-02-22T14:27:39.619Z,10.60
2023-02-22T14:33:27.948Z,11.40
2023-02-22T14:38:56.266Z,10.63
2023-02-22T14:44:25.141Z,12.10
2023-02-22T14:49:55.250Z,9.87
2023-02-22T14:55:25.557Z,8.20
2023-02-22T15:00:59.703Z,8.80
2023-02-22T15:06:26.929Z,8.13
2023-02-22T15:12:25.963Z,9.13
2023-02-22T15:24:25.125Z,9.50
2023-02-22T15:29:49.689Z,10.93
2023-02-22T15:35:19.444Z,11.77
2023-02-22T15:40:43.243Z,10.87
2023-02-22T15:46:10.792Z,11.80
2023-02-22T15:51:46.335Z,10.97
2023-02-22T15:57:16.127Z,12.30
2023-02-22T16:02:51.107Z,11.50
2023-02-22T16:08:18.616Z,12.17
2023-02-22T16:13:43.475Z,12.03
2023-02-22T16:19:34.206Z,13.30
2023-02-22T16:25:16.438Z,14.00
2023-02-22T16:30:42.268Z,13.20
2023-02-22T16:36:25.836Z,12.83
2023-02-22T16:41:49.748Z,13.10
2023-02-22T16:47:14.802Z,12.50
2023-02-22T16:52:40.683Z,14.40
2023-02-22T16:58:09.965Z,14.43
2023-02-22T17:03:32.987Z,14.80
2023-02-22T17:15:47.345Z,15.90
2023-02-22T17:21:16.838Z,14.27
2023-02-22T17:26:39.789Z,16.77
2023-02-22T17:32:16.784Z,19.10
2023-02-22T17:37:55.142Z,18.67
2023-02-22T17:43:20.782Z,18.33
2023-02-22T17:48:49.214Z,20.70
2023-02-22T17:54:15.969Z,21.60
2023-02-22T17:59:40.695Z,22.13
2023-02-22T18:05:05.578Z,21.20
2023-02-22T18:10:28.682Z,21.43
2023-02-22T18:15:51.911Z,22.87
2023-02-22T18:21:16.330Z,21.57
2023-02-22T18:26:46.412Z,20.47
2023-02-22T18:32:13.497Z,25.87
2023-02-22T18:37:37.958Z,20.17
2023-02-22T18:43:01.025Z,19.20
2023-02-22T18:48:23.986Z,21.13
2023-02-22T18:53:50.074Z,26.20
2023-02-22T18:59:16.285Z,19.73
2023-02-22T19:04:39.567Z,18.83
2023-02-22T19:10:16.766Z,19.47
2023-02-22T19:15:45.478Z,20.70
2023-02-22T19:21:12.658Z,20.47
2023-02-22T19:26:39.624Z,20.77
2023-02-22T19:32:03.180Z,25.43
2023-02-22T19:37:26.908Z,21.90
2023-02-22T19:42:54.125Z,21.40
2023-02-22T19:48:17.649Z,23.43
2023-02-22T19:53:45.120Z,22.30
2023-02-22T19:59:18.628Z,21.77
2023-02-22T20:04:51.602Z,26.90
2023-02-22T20:10:57.463Z,21.13
2023-02-22T20:17:46.170Z,21.60
2023-02-22T20:23:14.864Z,23.83
2023-02-22T20:28:44.108Z,21.30
2023-02-22T20:34:10.345Z,24.30
2023-02-22T20:39:41.019Z,23.90
2023-02-22T20:45:12.194Z,23.37
2023-02-22T20:50:36.297Z,25.37
2023-02-22T20:56:13.118Z,31.90
2023-02-22T21:01:36.305Z,24.40
2023-02-22T21:07:01.069Z,28.00
2023-02-22T21:12:32.084Z,26.77
2023-02-22T21:17:55.971Z,27.17
2023-02-22T21:23:53.629Z,27.80
2023-02-22T21:29:54.518Z,27.87
2023-02-22T21:35:23.567Z,26.60
2023-02-22T21:40:58.818Z,27.37
2023-02-22T21:46:27.305Z,26.30
2023-02-22T21:52:09.974Z,26.67
2023-02-22T21:57:33.557Z,32.60
2023-02-22T22:03:05.041Z,27.40
2023-02-22T22:08:32.086Z,26.67
2023-02-22T22:13:59.581Z,27.50
2023-02-22T22:19:25.517Z,26.00
2023-02-22T22:25:17.713Z,28.73
2023-02-22T22:30:42.573Z,28.03
2023-02-22T22:36:06.856Z,28.20
2023-02-22T22:41:33.935Z,27.87
2023-02-22T22:47:20.369Z,31.73
2023-02-22T22:52:49.579Z,30.47
2023-02-22T22:58:29.462Z,30.40
2023-02-22T23:03:55.900Z,33.50
2023-02-22T23:09:24.352Z,36.77
2023-02-22T23:14:52.615Z,37.20
2023-02-22T23:20:23.194Z,38.57
2023-02-22T23:25:51.998Z,43.73
2023-02-22T23:31:25.493Z,41.43
2023-02-22T23:36:49.901Z,41.67
2023-02-22T23:42:21.695Z,44.50
2023-02-22T23:47:59.051Z,43.17
2023-02-22T23:53:25.948Z,41.27
2023-02-22T23:58:51.960Z,41.90
